Time;durP1;ratioP1;P1;durP2;ratioP2;P2;SDS_P1;SDS_P2;PMS_P1;PMS_P2;Temp;Humidity;BMP_temperature;BMP_pressure;BME280_temperature;BME280_humidity;BME280_pressure;Samples;Min_cycle;Max_cycle;Signal;HPM_P1;HPM_P2
2021/12/19 00:02:24;;;;;;;;;;;4.90;99.90;;;;;;5005969;28;19936;-73
2021/12/19 00:08:28;;;;;;;;;;;4.90;99.90;;;;;;5004325;28;20008;-73
2021/12/19 00:10:30;;;;;;;;;;;4.90;99.90;;;;;;5009712;28;19948;-73
2021/12/19 00:12:57;;;;;;;;;;;4.90;99.90;;;;;;5005801;28;19926;-73
2021/12/19 00:15:25;;;;;;;;;;;4.90;99.90;;;;;;5004656;28;20033;-73
2021/12/19 00:17:52;;;;;;;;;;;4.90;99.90;;;;;;5007294;28;20553;-73
2021/12/19 00:20:19;;;;;;;;;;;4.90;99.90;;;;;;5011420;28;19929;-74
2021/12/19 00:22:45;;;;;;;;;;;5.00;99.90;;;;;;5012456;28;19931;-75
2021/12/19 00:25:12;;;;;;;;;;;5.00;99.90;;;;;;5013020;28;20027;-73
2021/12/19 00:27:39;;;;;;;;;;;4.90;99.90;;;;;;5014361;28;20012;-75
2021/12/19 00:30:06;;;;;;;;;;;5.00;99.90;;;;;;5011544;28;20022;-73
2021/12/19 00:32:34;;;;;;;;;;;5.00;99.90;;;;;;5009762;28;19968;-73
2021/12/19 00:35:00;;;;;;;;;;;5.00;99.90;;;;;;5012582;28;19932;-73
2021/12/19 00:37:27;;;;;;;;;;;5.00;99.90;;;;;;5012311;28;19929;-73
2021/12/19 00:39:54;;;;;;;;;;;5.10;99.90;;;;;;5010547;28;19925;-70
2021/12/19 00:42:27;;;;;;;;;;;5.10;99.90;;;;;;5009670;28;20410;-73
2021/12/19 00:44:54;;;;;;;;;;;5.10;99.90;;;;;;5002169;28;20400;-73
2021/12/19 00:47:21;;;;;;;;;;;5.10;99.90;;;;;;5013503;28;20344;-73
2021/12/19 00:49:48;;;;;;;;;;;5.00;99.90;;;;;;5010975;28;20421;-73
2021/12/19 00:52:15;;;;;;;;;;;5.10;99.90;;;;;;5007893;28;20396;-73
2021/12/19 00:54:42;;;;;;;;;;;5.10;99.90;;;;;;5005705;28;20601;-73
2021/12/19 00:57:08;;;;;;;;;;;5.10;99.90;;;;;;5006571;28;20487;-73
2021/12/19 00:59:35;;;;;;;;;;;5.10;99.90;;;;;;5012723;28;20411;-73
2021/12/19 01:02:02;;;;;;;;;;;5.10;99.90;;;;;;5005928;28;20351;-73
2021/12/19 01:04:28;;;;;;;;;;;5.10;99.90;;;;;;5009931;28;20338;-73
2021/12/19 01:07:00;;;;;;;;;;;5.10;99.90;;;;;;5010761;28;19925;-73
2021/12/19 01:09:27;;;;;;;;;;;5.10;99.90;;;;;;5010198;28;20498;-73
2021/12/19 01:11:54;;;;;;;;;;;5.10;99.90;;;;;;5013009;28;19940;-71
2021/12/19 01:14:20;;;;;;;;;;;5.10;99.90;;;;;;5010930;28;20033;-73
2021/12/19 01:16:47;;;;;;;;;;;5.10;99.90;;;;;;5008201;28;19925;-72
2021/12/19 01:19:14;;;;;;;;;;;5.20;99.90;;;;;;5012719;28;20012;-71
2021/12/19 01:21:40;;;;;;;;;;;5.20;99.90;;;;;;5012420;28;19932;-72
2021/12/19 01:24:08;;;;;;;;;;;5.20;99.90;;;;;;5010156;28;19936;-71
2021/12/19 01:26:35;;;;;;;;;;;5.20;99.90;;;;;;5007061;28;19973;-71
2021/12/19 01:29:02;;;;;;;;;;;5.20;99.90;;;;;;5012104;28;20028;-71
2021/12/19 01:31:28;;;;;;;;;;;5.20;99.90;;;;;;5010221;28;20009;-71
2021/12/19 01:33:55;;;;;;;;;;;5.20;99.90;;;;;;5003905;28;19997;-71
2021/12/19 01:36:22;;;;;;;;;;;5.20;99.90;;;;;;5010590;28;20012;-71
2021/12/19 01:38:48;;;;;;;;;;;5.20;99.90;;;;;;5011385;28;19992;-70
2021/12/19 01:41:16;;;;;;;;;;;5.20;99.90;;;;;;5008040;28;19926;-71
2021/12/19 01:43:43;;;;;;;;;;;5.20;99.90;;;;;;5010042;28;19925;-72
2021/12/19 01:46:10;;;;;;;;;;;5.20;99.90;;;;;;5009252;28;19943;-72
2021/12/19 01:48:36;;;;;;;;;;;5.20;99.90;;;;;;5011345;28;20025;-71
2021/12/19 01:51:03;;;;;;;;;;;5.20;99.90;;;;;;5001255;28;19961;-71
2021/12/19 01:53:30;;;;;;;;;;;5.20;99.90;;;;;;5009520;28;19934;-71
2021/12/19 01:55:57;;;;;;;;;;;5.20;99.90;;;;;;5011163;28;20380;-71
2021/12/19 01:58:25;;;;;;;;;;;5.20;99.90;;;;;;5010878;28;19925;-72
2021/12/19 02:00:53;;;;;;;;;;;5.20;99.90;;;;;;5008308;28;20302;-72
2021/12/19 02:03:20;;;;;;;;;;;5.30;99.90;;;;;;5009492;28;19936;-71
2021/12/19 02:05:46;;;;;;;;;;;5.30;99.90;;;;;;5005013;28;19925;-71
2021/12/19 02:08:13;;;;;;;;;;;5.30;99.90;;;;;;5010592;28;19925;-72
2021/12/19 02:10:40;;;;;;;;;;;5.30;99.90;;;;;;5007018;28;19929;-72
2021/12/19 02:13:09;;;;;;;;;;;5.30;99.90;;;;;;5008846;28;19932;-72
2021/12/19 02:15:38;;;;;;;;;;;5.30;99.90;;;;;;5012212;28;19934;-73
2021/12/19 02:18:06;;;;;;;;;;;5.30;99.90;;;;;;5011788;28;20296;-72
2021/12/19 02:20:35;;;;;;;;;;;5.30;99.90;;;;;;5009002;28;20291;-72
2021/12/19 02:23:02;;;;;;;;;;;5.30;99.90;;;;;;5014130;28;20012;-73
2021/12/19 02:25:29;;;;;;;;;;;5.40;99.90;;;;;;5013241;28;19925;-72
2021/12/19 02:27:55;;;;;;;;;;;5.30;99.90;;;;;;5012103;28;19933;-70
2021/12/19 02:30:22;;;;;;;;;;;5.30;99.90;;;;;;5009718;28;19932;-71
2021/12/19 02:32:49;;;;;;;;;;;5.30;99.90;;;;;;5012587;28;20016;-72
2021/12/19 02:35:20;;;;;;;;;;;5.30;99.90;;;;;;5014096;28;20015;-71
2021/12/19 02:48:09;;;;;;;;;;;5.30;99.90;;;;;;5001290;28;19926;-71
2021/12/19 02:48:56;;;;;;;;;;;5.30;99.90;;;;;;5011250;28;19941;-70
2021/12/19 02:51:23;;;;;;;;;;;5.40;99.90;;;;;;5004504;28;20064;-71
2021/12/19 02:53:52;;;;;;;;;;;5.40;99.90;;;;;;5012636;28;19926;-71
2021/12/19 02:56:19;;;;;;;;;;;5.40;99.90;;;;;;5012627;28;19980;-71
2021/12/19 02:58:46;;;;;;;;;;;5.50;99.90;;;;;;5012361;28;19926;-71
2021/12/19 03:01:15;;;;;;;;;;;5.60;99.90;;;;;;5010135;28;20048;-76
2021/12/19 03:03:42;;;;;;;;;;;5.60;99.90;;;;;;5014441;28;19931;-73
2021/12/19 03:06:09;;;;;;;;;;;5.60;99.90;;;;;;5007903;28;19926;-71
2021/12/19 03:08:41;;;;;;;;;;;5.60;99.90;;;;;;5004786;28;19926;-71
2021/12/19 03:11:53;;;;;;;;;;;5.60;99.90;;;;;;5001175;28;20304;-71
2021/12/19 03:19:45;;;;;;;;;;;5.70;99.90;;;;;;5009853;28;19933;-70
2021/12/19 03:22:11;;;;;;;;;;;5.70;99.90;;;;;;5005759;28;19925;-70
2021/12/19 03:24:38;;;;;;;;;;;5.70;99.90;;;;;;5009769;28;20020;-70
2021/12/19 03:27:06;;;;;;;;;;;5.70;99.90;;;;;;5010502;28;19925;-70
2021/12/19 03:29:32;;;;;;;;;;;5.70;99.90;;;;;;5011847;28;19925;-70
2021/12/19 03:31:59;;;;;;;;;;;5.70;99.90;;;;;;5007353;28;20020;-70
2021/12/19 03:34:26;;;;;;;;;;;5.70;99.90;;;;;;5012355;28;20036;-70
2021/12/19 03:36:52;;;;;;;;;;;5.70;99.90;;;;;;5009769;28;19933;-70
2021/12/19 03:39:33;;;;;;;;;;;5.70;99.90;;;;;;5007785;28;19965;-70
2021/12/19 03:42:00;;;;;;;;;;;5.70;99.90;;;;;;5005053;28;19933;-70
2021/12/19 03:44:28;;;;;;;;;;;5.70;99.90;;;;;;5011867;28;19925;-70
2021/12/19 03:46:55;;;;;;;;;;;5.70;99.90;;;;;;5008821;28;19933;-70
2021/12/19 03:49:21;;;;;;;;;;;5.70;99.90;;;;;;5011019;28;19926;-70
2021/12/19 03:51:48;;;;;;;;;;;5.70;99.90;;;;;;5006031;28;19925;-71
2021/12/19 03:54:15;;;;;;;;;;;5.70;99.90;;;;;;5012436;28;20041;-71
2021/12/19 03:56:42;;;;;;;;;;;5.70;99.90;;;;;;5004153;28;19933;-71
2021/12/19 03:59:09;;;;;;;;;;;5.70;99.90;;;;;;5012045;28;20449;-71
2021/12/19 04:01:37;;;;;;;;;;;5.70;99.90;;;;;;5003091;28;20019;-71
2021/12/19 04:04:04;;;;;;;;;;;5.70;99.90;;;;;;5009913;28;20395;-71
2021/12/19 04:06:30;;;;;;;;;;;5.70;99.90;;;;;;5005873;28;19976;-71
2021/12/19 04:08:57;;;;;;;;;;;5.70;99.90;;;;;;5009548;28;19932;-71
2021/12/19 04:11:25;;;;;;;;;;;5.70;99.90;;;;;;5001258;28;19932;-71
2021/12/19 04:13:52;;;;;;;;;;;5.70;99.90;;;;;;5010112;28;19926;-72
2021/12/19 04:16:19;;;;;;;;;;;5.70;99.90;;;;;;5010903;28;19926;-71
2021/12/19 04:18:47;;;;;;;;;;;5.70;99.90;;;;;;5009755;28;19925;-71
2021/12/19 04:21:13;;;;;;;;;;;5.70;99.90;;;;;;5002108;28;20537;-71
2021/12/19 04:23:40;;;;;;;;;;;5.60;99.90;;;;;;5007400;28;20012;-72
2021/12/19 04:26:07;;;;;;;;;;;5.60;99.90;;;;;;5010297;28;19941;-72
2021/12/19 04:28:34;;;;;;;;;;;5.60;99.90;;;;;;5010378;28;19940;-72
2021/12/19 04:31:02;;;;;;;;;;;5.60;99.90;;;;;;5006595;28;19925;-71
2021/12/19 04:33:29;;;;;;;;;;;5.60;99.90;;;;;;5007049;28;20331;-71
2021/12/19 04:36:01;;;;;;;;;;;5.60;99.90;;;;;;5009488;28;19972;-71
2021/12/19 04:41:49;;;;;;;;;;;5.60;99.90;;;;;;4983657;28;20020;-72
2021/12/19 04:52:57;;;;;;;;;;;5.60;99.90;;;;;;5007210;28;19933;-71
2021/12/19 04:58:19;;;;;;;;;;;5.60;99.90;;;;;;5010665;28;19925;-71
2021/12/19 05:00:56;;;;;;;;;;;5.60;99.90;;;;;;5008384;28;20398;-72
2021/12/19 05:03:32;;;;;;;;;;;5.60;99.90;;;;;;5011754;28;19926;-72
2021/12/19 05:06:06;;;;;;;;;;;5.60;99.90;;;;;;5012714;28;19929;-73
2021/12/19 05:14:08;;;;;;;;;;;5.60;99.90;;;;;;5010347;28;19933;-72
2021/12/19 05:16:37;;;;;;;;;;;5.50;99.90;;;;;;5009230;28;19968;-71
2021/12/19 05:19:08;;;;;;;;;;;5.60;99.90;;;;;;5014370;28;19949;-71
2021/12/19 05:21:37;;;;;;;;;;;5.60;99.90;;;;;;5010054;28;20509;-71
2021/12/19 05:26:47;;;;;;;;;;;5.60;99.90;;;;;;5002860;28;20024;-71
2021/12/19 05:29:14;;;;;;;;;;;5.60;99.90;;;;;;5014993;28;19925;-71
2021/12/19 05:31:41;;;;;;;;;;;5.60;99.90;;;;;;5014566;28;19932;-71
2021/12/19 05:34:07;;;;;;;;;;;5.60;99.90;;;;;;5009897;28;19934;-72
2021/12/19 05:47:32;;;;;;;;;;;5.60;99.90;;;;;;5012476;28;20419;-71
2021/12/19 05:49:58;;;;;;;;;;;5.60;99.90;;;;;;5008375;28;19926;-71
2021/12/19 05:52:26;;;;;;;;;;;5.70;99.90;;;;;;5002073;28;20013;-71
2021/12/19 05:54:54;;;;;;;;;;;5.70;99.90;;;;;;5002808;28;19933;-71
2021/12/19 05:57:21;;;;;;;;;;;5.70;99.90;;;;;;5012102;28;20420;-71
2021/12/19 05:59:47;;;;;;;;;;;5.60;99.90;;;;;;5012484;28;19925;-71
2021/12/19 06:02:14;;;;;;;;;;;5.60;99.90;;;;;;5005340;28;19926;-72
2021/12/19 06:04:41;;;;;;;;;;;5.60;99.90;;;;;;5009730;28;19940;-71
2021/12/19 06:07:07;;;;;;;;;;;5.60;99.90;;;;;;5010106;28;19926;-71
2021/12/19 06:09:34;;;;;;;;;;;5.60;99.90;;;;;;5011719;28;19944;-71
2021/12/19 06:12:02;;;;;;;;;;;5.60;99.90;;;;;;5007495;28;19925;-72
2021/12/19 06:14:33;;;;;;;;;;;5.60;99.90;;;;;;5010578;28;19925;-71
2021/12/19 06:16:59;;;;;;;;;;;5.60;99.90;;;;;;5013151;28;19926;-72
2021/12/19 06:19:26;;;;;;;;;;;5.60;99.90;;;;;;5017612;28;20021;-71
2021/12/19 06:21:53;;;;;;;;;;;5.60;99.90;;;;;;5009740;28;20055;-72
2021/12/19 06:24:20;;;;;;;;;;;5.60;99.90;;;;;;5013387;28;19971;-75
2021/12/19 06:26:46;;;;;;;;;;;5.50;99.90;;;;;;5015444;28;19995;-72
2021/12/19 06:29:15;;;;;;;;;;;5.50;99.90;;;;;;5017753;28;20012;-71
2021/12/19 06:31:41;;;;;;;;;;;5.50;99.90;;;;;;5016029;28;20024;-72
2021/12/19 06:34:08;;;;;;;;;;;5.50;99.90;;;;;;5006279;28;19999;-71
2021/12/19 06:36:36;;;;;;;;;;;5.60;99.90;;;;;;5008957;28;19926;-71
2021/12/19 06:39:04;;;;;;;;;;;5.60;99.90;;;;;;5009961;28;19937;-71
2021/12/19 06:41:30;;;;;;;;;;;5.60;99.90;;;;;;5004169;28;19925;-72
2021/12/19 06:43:57;;;;;;;;;;;5.60;99.90;;;;;;5011562;28;19925;-71
2021/12/19 06:46:25;;;;;;;;;;;5.60;99.90;;;;;;5013957;28;19932;-71
2021/12/19 06:48:52;;;;;;;;;;;5.60;99.90;;;;;;5012221;28;19936;-71
2021/12/19 06:51:18;;;;;;;;;;;5.50;99.90;;;;;;5011132;28;20017;-71
2021/12/19 06:53:45;;;;;;;;;;;5.50;99.90;;;;;;5011463;28;19925;-71
2021/12/19 06:56:12;;;;;;;;;;;5.50;99.90;;;;;;5014871;28;20322;-72
2021/12/19 06:58:38;;;;;;;;;;;5.60;99.90;;;;;;5013563;28;19930;-72
2021/12/19 07:01:05;;;;;;;;;;;5.60;99.90;;;;;;5014651;28;19925;-72
2021/12/19 07:03:33;;;;;;;;;;;5.50;99.90;;;;;;5005385;28;19929;-71
2021/12/19 07:06:00;;;;;;;;;;;5.50;99.90;;;;;;5003465;28;19925;-71
2021/12/19 07:08:27;;;;;;;;;;;5.50;99.90;;;;;;5007691;28;19929;-71
2021/12/19 07:10:53;;;;;;;;;;;5.50;99.90;;;;;;5008831;28;19925;-72
2021/12/19 07:13:21;;;;;;;;;;;5.50;99.90;;;;;;5013128;28;19925;-71
2021/12/19 07:15:48;;;;;;;;;;;5.50;99.90;;;;;;5011240;28;19968;-71
2021/12/19 07:18:14;;;;;;;;;;;5.50;99.90;;;;;;5009643;28;20000;-71
2021/12/19 07:20:43;;;;;;;;;;;5.40;99.90;;;;;;5009717;28;19925;-72
2021/12/19 07:23:10;;;;;;;;;;;5.40;99.90;;;;;;5011541;28;19945;-71
2021/12/19 07:25:37;;;;;;;;;;;5.40;99.90;;;;;;5006574;28;19929;-71
2021/12/19 07:28:04;;;;;;;;;;;5.40;99.90;;;;;;5013855;28;19925;-71
2021/12/19 07:30:31;;;;;;;;;;;5.50;99.90;;;;;;5012694;28;20012;-72
2021/12/19 07:32:58;;;;;;;;;;;5.50;99.90;;;;;;5008405;28;19933;-72
2021/12/19 07:35:25;;;;;;;;;;;5.40;99.90;;;;;;5009088;28;19932;-73
2021/12/19 07:37:55;;;;;;;;;;;5.40;99.90;;;;;;5010367;28;19925;-72
2021/12/19 07:40:23;;;;;;;;;;;5.50;99.90;;;;;;5011760;28;20012;-72
2021/12/19 07:42:50;;;;;;;;;;;5.50;99.90;;;;;;5009826;28;19925;-72
2021/12/19 07:45:17;;;;;;;;;;;5.50;99.90;;;;;;5008974;28;19926;-71
2021/12/19 07:47:44;;;;;;;;;;;5.50;99.90;;;;;;5011794;28;19932;-72
2021/12/19 07:50:12;;;;;;;;;;;5.50;99.90;;;;;;5011977;28;20016;-71
2021/12/19 07:52:39;;;;;;;;;;;5.50;99.90;;;;;;5004561;28;19926;-71
2021/12/19 07:55:08;;;;;;;;;;;5.50;99.90;;;;;;5001406;28;19935;-72
2021/12/19 07:57:35;;;;;;;;;;;5.40;99.90;;;;;;5006097;28;19939;-73
2021/12/19 08:00:01;;;;;;;;;;;5.40;99.90;;;;;;5008713;28;20016;-73
2021/12/19 08:02:28;;;;;;;;;;;5.40;99.90;;;;;;5008127;28;19926;-72
2021/12/19 08:04:55;;;;;;;;;;;5.50;99.90;;;;;;5007108;28;20020;-72
2021/12/19 08:07:23;;;;;;;;;;;5.40;99.90;;;;;;5009600;28;19925;-73
2021/12/19 08:10:00;;;;;;;;;;;5.40;99.90;;;;;;5006162;28;19980;-72
2021/12/19 08:12:27;;;;;;;;;;;5.50;99.90;;;;;;5006765;28;20382;-72
2021/12/19 08:14:54;;;;;;;;;;;5.50;99.90;;;;;;5010021;28;19926;-73
2021/12/19 08:17:22;;;;;;;;;;;5.50;99.90;;;;;;5010364;28;19925;-72
2021/12/19 08:19:49;;;;;;;;;;;5.50;99.90;;;;;;5007381;28;20670;-71
2021/12/19 08:22:15;;;;;;;;;;;5.50;99.90;;;;;;5010142;28;20019;-71
2021/12/19 08:24:43;;;;;;;;;;;5.60;99.90;;;;;;5009643;28;20012;-72
2021/12/19 08:27:10;;;;;;;;;;;5.50;99.90;;;;;;5009882;28;19925;-71
2021/12/19 08:29:38;;;;;;;;;;;5.60;99.90;;;;;;5006711;28;19926;-71
2021/12/19 08:32:05;;;;;;;;;;;5.60;99.90;;;;;;5010411;28;19987;-71
2021/12/19 08:34:31;;;;;;;;;;;5.60;99.90;;;;;;5009346;28;19929;-72
2021/12/19 08:36:59;;;;;;;;;;;5.60;99.90;;;;;;5009305;28;20025;-72
2021/12/19 08:39:27;;;;;;;;;;;5.70;99.90;;;;;;5010531;28;19929;-72
2021/12/19 08:41:54;;;;;;;;;;;5.70;99.90;;;;;;5008310;28;19934;-72
2021/12/19 08:44:21;;;;;;;;;;;5.70;99.90;;;;;;5009974;28;20028;-72
2021/12/19 08:46:49;;;;;;;;;;;5.60;99.90;;;;;;5007855;28;20348;-73
2021/12/19 08:49:17;;;;;;;;;;;5.70;99.90;;;;;;5004164;28;20573;-72
2021/12/19 08:51:44;;;;;;;;;;;5.70;99.90;;;;;;5007276;28;20354;-71
2021/12/19 08:54:11;;;;;;;;;;;5.80;99.90;;;;;;5010542;28;19925;-71
2021/12/19 08:56:37;;;;;;;;;;;5.80;99.90;;;;;;5010440;28;19984;-71
2021/12/19 08:59:04;;;;;;;;;;;5.80;99.90;;;;;;5009371;28;20588;-71
2021/12/19 09:01:31;;;;;;;;;;;5.80;99.90;;;;;;5003933;28;19944;-70
2021/12/19 09:04:00;;;;;;;;;;;5.90;99.90;;;;;;5010272;28;19936;-71
2021/12/19 09:06:26;;;;;;;;;;;5.90;99.90;;;;;;5009531;28;19969;-71
2021/12/19 09:08:53;;;;;;;;;;;6.00;99.90;;;;;;5010234;28;19926;-70
2021/12/19 09:11:20;;;;;;;;;;;6.00;99.90;;;;;;5010482;28;20427;-71
2021/12/19 09:13:47;;;;;;;;;;;6.10;99.90;;;;;;5011339;28;19925;-71
2021/12/19 09:16:13;;;;;;;;;;;6.00;99.90;;;;;;5011454;28;19932;-70
2021/12/19 09:18:40;;;;;;;;;;;6.00;99.90;;;;;;5009787;28;20299;-70
2021/12/19 09:21:09;;;;;;;;;;;6.00;99.90;;;;;;5013169;28;19925;-70
2021/12/19 09:23:35;;;;;;;;;;;6.10;99.90;;;;;;5004629;28;19960;-71
2021/12/19 09:26:02;;;;;;;;;;;6.10;99.90;;;;;;5012348;28;19926;-70
2021/12/19 09:28:28;;;;;;;;;;;6.10;99.90;;;;;;5009761;28;19929;-70
2021/12/19 09:30:55;;;;;;;;;;;6.20;99.90;;;;;;5012234;28;19925;-71
2021/12/19 09:33:22;;;;;;;;;;;6.20;99.90;;;;;;5007964;28;19934;-72
2021/12/19 09:35:49;;;;;;;;;;;6.20;99.90;;;;;;5011099;28;19929;-72
2021/12/19 09:38:18;;;;;;;;;;;6.30;99.90;;;;;;5012170;28;20004;-72
2021/12/19 09:40:46;;;;;;;;;;;6.20;99.90;;;;;;5015885;28;19926;-75
2021/12/19 09:43:41;;;;;;;;;;;6.20;99.90;;;;;;5008701;28;19933;-71
2021/12/19 09:46:09;;;;;;;;;;;6.20;99.90;;;;;;5011794;28;19926;-71
2021/12/19 09:48:36;;;;;;;;;;;6.30;99.90;;;;;;5009423;28;19933;-74
2021/12/19 09:51:03;;;;;;;;;;;6.30;99.90;;;;;;5009317;28;19929;-72
2021/12/19 09:53:31;;;;;;;;;;;6.40;99.90;;;;;;5009270;28;19929;-71
2021/12/19 09:55:57;;;;;;;;;;;6.50;99.90;;;;;;5010471;28;20292;-72
2021/12/19 09:58:24;;;;;;;;;;;6.50;99.90;;;;;;5008187;28;19929;-72
2021/12/19 10:00:53;;;;;;;;;;;6.50;99.90;;;;;;5007918;28;19932;-71
2021/12/19 10:03:20;;;;;;;;;;;6.50;99.90;;;;;;5004659;28;19925;-70
2021/12/19 10:05:47;;;;;;;;;;;6.50;99.90;;;;;;5010791;28;19948;-70
2021/12/19 10:08:22;;;;;;;;;;;6.50;99.90;;;;;;5008663;28;19932;-71
2021/12/19 10:10:56;;;;;;;;;;;6.50;99.90;;;;;;5007515;28;20012;-70
2021/12/19 10:13:31;;;;;;;;;;;6.60;99.90;;;;;;4999872;28;19933;-70
2021/12/19 10:15:57;;;;;;;;;;;6.60;99.90;;;;;;5003203;28;19925;-71
2021/12/19 10:18:24;;;;;;;;;;;6.70;99.90;;;;;;5010026;28;19929;-71
2021/12/19 10:20:52;;;;;;;;;;;6.70;99.90;;;;;;5010928;28;20060;-71
2021/12/19 10:23:20;;;;;;;;;;;6.70;99.90;;;;;;5005844;28;19932;-75
2021/12/19 10:25:56;;;;;;;;;;;6.80;99.90;;;;;;5004589;28;19940;-72
2021/12/19 10:28:23;;;;;;;;;;;6.90;99.90;;;;;;5011531;28;19925;-72
2021/12/19 10:30:50;;;;;;;;;;;6.90;99.90;;;;;;5012567;28;20057;-72
2021/12/19 10:33:17;;;;;;;;;;;7.00;99.90;;;;;;5006851;28;19931;-71
2021/12/19 10:35:47;;;;;;;;;;;6.90;99.90;;;;;;5007066;28;19931;-72
2021/12/19 10:38:15;;;;;;;;;;;6.90;99.90;;;;;;5010304;28;20410;-72
2021/12/19 10:40:45;;;;;;;;;;;6.90;99.90;;;;;;5013200;28;19925;-72
2021/12/19 10:43:16;;;;;;;;;;;6.90;99.90;;;;;;5011619;28;19925;-72
2021/12/19 10:45:45;;;;;;;;;;;7.00;99.90;;;;;;4995781;28;20012;-71
2021/12/19 10:48:13;;;;;;;;;;;7.00;99.90;;;;;;5011489;28;19925;-71
2021/12/19 10:50:46;;;;;;;;;;;7.00;99.90;;;;;;5009229;28;20455;-72
2021/12/19 10:53:15;;;;;;;;;;;7.00;99.90;;;;;;5005326;28;19964;-72
2021/12/19 10:55:43;;;;;;;;;;;7.00;99.90;;;;;;5003699;28;20022;-72
2021/12/19 10:58:21;;;;;;;;;;;7.00;99.90;;;;;;5011560;28;19926;-71
2021/12/19 11:00:55;;;;;;;;;;;7.00;99.90;;;;;;5010886;28;20372;-71
2021/12/19 11:03:33;;;;;;;;;;;7.00;99.90;;;;;;5015710;28;19925;-72
2021/12/19 11:06:00;;;;;;;;;;;7.00;99.90;;;;;;5010864;28;19968;-71
2021/12/19 11:08:30;;;;;;;;;;;7.00;99.90;;;;;;5011982;28;19932;-73
2021/12/19 11:10:57;;;;;;;;;;;7.00;99.90;;;;;;5012003;28;19972;-71
2021/12/19 11:13:25;;;;;;;;;;;7.10;99.90;;;;;;5006946;28;19939;-71
2021/12/19 11:15:52;;;;;;;;;;;7.20;99.90;;;;;;4994242;28;19925;-71
2021/12/19 11:18:18;;;;;;;;;;;7.10;99.90;;;;;;5007792;28;19925;-72
2021/12/19 11:20:45;;;;;;;;;;;7.00;99.90;;;;;;5007167;28;19926;-71
2021/12/19 11:23:12;;;;;;;;;;;7.00;99.90;;;;;;5007396;28;19925;-75
2021/12/19 11:25:39;;;;;;;;;;;7.00;99.90;;;;;;5012523;28;19933;-71
2021/12/19 11:28:06;;;;;;;;;;;7.00;99.90;;;;;;5013814;28;20454;-71
2021/12/19 11:30:34;;;;;;;;;;;7.00;99.90;;;;;;5010588;28;19925;-74
2021/12/19 11:33:10;;;;;;;;;;;7.00;99.90;;;;;;5008932;28;19935;-71
2021/12/19 11:35:38;;;;;;;;;;;7.00;99.90;;;;;;5007299;28;19925;-72
2021/12/19 11:38:07;;;;;;;;;;;7.10;99.90;;;;;;5013290;28;19926;-72
2021/12/19 11:40:36;;;;;;;;;;;7.10;99.90;;;;;;5010526;28;20347;-72
2021/12/19 11:43:04;;;;;;;;;;;7.00;99.90;;;;;;5012486;28;19979;-72
2021/12/19 11:45:35;;;;;;;;;;;7.00;99.90;;;;;;5006376;28;19961;-72
2021/12/19 11:48:08;;;;;;;;;;;7.00;99.90;;;;;;5008556;28;19926;-71
2021/12/19 11:50:36;;;;;;;;;;;7.00;99.90;;;;;;5009176;28;19929;-71
2021/12/19 11:53:17;;;;;;;;;;;7.00;99.90;;;;;;5013370;28;20056;-72
2021/12/19 11:55:45;;;;;;;;;;;7.00;99.90;;;;;;5005581;28;19985;-72
2021/12/19 11:58:17;;;;;;;;;;;7.10;99.90;;;;;;4995687;28;19925;-72
2021/12/19 12:00:47;;;;;;;;;;;7.10;99.90;;;;;;5005940;28;19925;-70
2021/12/19 12:03:43;;;;;;;;;;;7.10;99.90;;;;;;5003041;28;19933;-70
2021/12/19 12:06:31;;;;;;;;;;;7.10;99.90;;;;;;4923425;29;20342;-71
2021/12/19 12:09:06;;;;;;;;;;;7.20;99.90;;;;;;5000619;28;20015;-71
2021/12/19 12:11:33;;;;;;;;;;;7.20;99.90;;;;;;5007797;28;20384;-71
2021/12/19 12:14:15;;;;;;;;;;;7.10;99.90;;;;;;5008325;28;19926;-68
2021/12/19 12:16:51;;;;;;;;;;;7.20;99.90;;;;;;5004484;28;19956;-69
2021/12/19 12:19:17;;;;;;;;;;;7.20;99.90;;;;;;5007813;28;19925;-70
2021/12/19 12:21:49;;;;;;;;;;;7.20;99.90;;;;;;5004291;28;19943;-69
2021/12/19 12:24:16;;;;;;;;;;;7.20;99.90;;;;;;5010326;28;19932;-69
2021/12/19 12:26:54;;;;;;;;;;;7.20;99.90;;;;;;5006842;28;19979;-70
2021/12/19 12:29:21;;;;;;;;;;;7.10;99.90;;;;;;5014048;28;20530;-69
2021/12/19 12:31:48;;;;;;;;;;;7.20;99.90;;;;;;5007358;28;19925;-69
2021/12/19 12:34:15;;;;;;;;;;;7.10;99.90;;;;;;5013914;28;19925;-71
2021/12/19 12:36:43;;;;;;;;;;;7.10;99.90;;;;;;5011215;28;20518;-70
2021/12/19 12:39:17;;;;;;;;;;;7.10;99.90;;;;;;5008074;28;19925;-69
2021/12/19 12:41:52;;;;;;;;;;;7.10;99.90;;;;;;5009752;28;20025;-70
2021/12/19 12:44:21;;;;;;;;;;;7.20;99.90;;;;;;5006350;28;20016;-69
2021/12/19 12:46:48;;;;;;;;;;;7.20;99.90;;;;;;5012310;28;19932;-69
2021/12/19 12:49:16;;;;;;;;;;;7.20;99.90;;;;;;5011476;28;19949;-69
2021/12/19 12:51:44;;;;;;;;;;;7.20;99.90;;;;;;5010215;28;19980;-69
2021/12/19 12:54:12;;;;;;;;;;;7.30;99.90;;;;;;5008030;28;19998;-69
2021/12/19 12:56:43;;;;;;;;;;;7.30;99.90;;;;;;5009832;28;20380;-70
2021/12/19 12:59:11;;;;;;;;;;;7.30;99.90;;;;;;5005143;28;19926;-69
2021/12/19 13:01:41;;;;;;;;;;;7.30;99.90;;;;;;5003450;28;20033;-70
2021/12/19 13:04:09;;;;;;;;;;;7.30;99.90;;;;;;5007427;28;19925;-69
2021/12/19 13:06:53;;;;;;;;;;;7.30;99.90;;;;;;5010751;28;20307;-71
2021/12/19 13:09:22;;;;;;;;;;;7.30;99.90;;;;;;5000723;28;19926;-69
2021/12/19 13:11:53;;;;;;;;;;;7.40;99.90;;;;;;5010800;28;20186;-70
2021/12/19 13:14:22;;;;;;;;;;;7.40;99.90;;;;;;5001936;28;20398;-70
2021/12/19 13:16:50;;;;;;;;;;;7.40;99.90;;;;;;5013182;28;20315;-69
2021/12/19 13:19:31;;;;;;;;;;;7.40;99.90;;;;;;5007843;28;19973;-70
2021/12/19 13:21:58;;;;;;;;;;;7.40;99.90;;;;;;5007051;28;19968;-69
2021/12/19 13:24:25;;;;;;;;;;;7.40;99.90;;;;;;5003314;28;19961;-70
2021/12/19 13:27:04;;;;;;;;;;;7.40;99.90;;;;;;5009159;28;19964;-70
2021/12/19 13:29:30;;;;;;;;;;;7.40;99.90;;;;;;5007161;28;19948;-69
2021/12/19 13:32:12;;;;;;;;;;;7.50;99.90;;;;;;5015148;28;19929;-70
2021/12/19 13:34:39;;;;;;;;;;;7.50;99.90;;;;;;5006456;28;19940;-69
2021/12/19 13:37:06;;;;;;;;;;;7.60;99.90;;;;;;5012462;28;19925;-70
2021/12/19 13:39:33;;;;;;;;;;;7.60;99.90;;;;;;5012702;28;19976;-72
2021/12/19 13:42:07;;;;;;;;;;;7.60;99.90;;;;;;5014461;28;19933;-69
2021/12/19 13:44:34;;;;;;;;;;;7.60;99.90;;;;;;5005115;28;19929;-69
2021/12/19 13:47:09;;;;;;;;;;;7.60;99.90;;;;;;5010012;28;19965;-69
2021/12/19 13:49:36;;;;;;;;;;;7.60;99.90;;;;;;5010666;28;20403;-68
2021/12/19 13:52:03;;;;;;;;;;;7.60;99.90;;;;;;5011638;28;19931;-69
2021/12/19 13:54:31;;;;;;;;;;;7.60;99.90;;;;;;5008891;28;20307;-70
2021/12/19 13:56:58;;;;;;;;;;;7.60;99.90;;;;;;5011834;28;19929;-69
2021/12/19 13:59:27;;;;;;;;;;;7.60;99.90;;;;;;5009626;28;20431;-70
2021/12/19 14:01:55;;;;;;;;;;;7.60;99.90;;;;;;5009008;28;19979;-70
2021/12/19 14:04:23;;;;;;;;;;;7.60;99.90;;;;;;5009262;28;19960;-69
2021/12/19 14:06:50;;;;;;;;;;;7.60;99.90;;;;;;5010142;28;22535;-69
2021/12/19 14:09:18;;;;;;;;;;;7.50;99.90;;;;;;5007266;28;19933;-68
2021/12/19 14:11:45;;;;;;;;;;;7.40;99.90;;;;;;5007477;28;19972;-70
2021/12/19 14:14:25;;;;;;;;;;;7.40;99.90;;;;;;5006906;28;19932;-69
2021/12/19 14:16:59;;;;;;;;;;;7.40;99.90;;;;;;5007243;28;19933;-69
2021/12/19 14:19:27;;;;;;;;;;;7.50;99.90;;;;;;5006632;28;19934;-70
2021/12/19 14:21:54;;;;;;;;;;;7.40;99.90;;;;;;5005188;28;19987;-70
2021/12/19 14:24:32;;;;;;;;;;;7.40;99.90;;;;;;5011831;28;19937;-70
2021/12/19 14:27:12;;;;;;;;;;;7.40;99.90;;;;;;5010028;28;19926;-73
2021/12/19 14:29:41;;;;;;;;;;;7.30;99.90;;;;;;5010337;28;20380;-70
2021/12/19 14:32:10;;;;;;;;;;;7.30;99.90;;;;;;5008925;28;19933;-70
2021/12/19 14:34:37;;;;;;;;;;;7.20;99.90;;;;;;5010240;28;19936;-70
2021/12/19 14:37:18;;;;;;;;;;;7.20;99.90;;;;;;5009361;28;20364;-70
2021/12/19 14:39:56;;;;;;;;;;;7.30;99.90;;;;;;5010855;28;20537;-70
2021/12/19 14:42:28;;;;;;;;;;;7.20;99.90;;;;;;5005573;28;20016;-70
2021/12/19 14:44:55;;;;;;;;;;;7.20;99.90;;;;;;5007946;28;19935;-70
2021/12/19 14:47:35;;;;;;;;;;;7.20;99.90;;;;;;5009191;28;19932;-70
2021/12/19 14:50:09;;;;;;;;;;;7.20;99.90;;;;;;5006162;28;19964;-70
2021/12/19 14:52:36;;;;;;;;;;;7.30;99.90;;;;;;5004628;28;19980;-70
2021/12/19 14:55:08;;;;;;;;;;;7.30;99.90;;;;;;5010361;28;19973;-70
2021/12/19 14:57:35;;;;;;;;;;;7.20;99.90;;;;;;5010988;28;19933;-69
2021/12/19 15:00:01;;;;;;;;;;;7.20;99.90;;;;;;5009268;28;19980;-69
2021/12/19 15:02:29;;;;;;;;;;;7.20;99.90;;;;;;5006034;28;20001;-70
2021/12/19 15:04:58;;;;;;;;;;;7.20;99.90;;;;;;5010667;28;20372;-70
2021/12/19 15:07:26;;;;;;;;;;;7.20;99.90;;;;;;5008792;28;20384;-70
2021/12/19 15:09:53;;;;;;;;;;;7.20;99.90;;;;;;5007199;28;19933;-71
2021/12/19 15:12:20;;;;;;;;;;;7.20;99.90;;;;;;5006574;28;19925;-70
2021/12/19 15:14:46;;;;;;;;;;;7.20;99.90;;;;;;5013008;28;19932;-75
2021/12/19 15:17:13;;;;;;;;;;;7.20;99.90;;;;;;5008214;28;20399;-71
2021/12/19 15:19:39;;;;;;;;;;;7.20;99.90;;;;;;5008180;28;20028;-70
2021/12/19 15:22:09;;;;;;;;;;;7.20;99.90;;;;;;5009932;28;20027;-69
2021/12/19 15:24:37;;;;;;;;;;;7.20;99.90;;;;;;5006577;28;19991;-70
2021/12/19 15:27:03;;;;;;;;;;;7.30;99.90;;;;;;5005926;28;20142;-70
2021/12/19 15:29:30;;;;;;;;;;;7.30;99.90;;;;;;5007720;28;19984;-69
2021/12/19 15:31:57;;;;;;;;;;;7.30;99.90;;;;;;5009937;28;19935;-69